Time;durP1;ratioP1;P1;durP2;ratioP2;P2;SDS_P1;SDS_P2;PMS_P1;PMS_P2;Temp;Humidity;BMP_temperature;BMP_pressure;BME280_temperature;BME280_humidity;BME280_pressure;Samples;Min_cycle;Max_cycle;Signal;HPM_P1;HPM_P2
2021/10/17 00:00:27;;;;;;;11.98;2.55;;;;;;;;;;4972213;28;20634;-84
2021/10/17 00:02:54;;;;;;;13.75;2.40;;;;;;;;;;4972561;28;20062;-84
2021/10/17 00:05:23;;;;;;;12.38;2.25;;;;;;;;;;4968388;28;20078;-84
2021/10/17 00:07:50;;;;;;;15.15;2.30;;;;;;;;;;4990646;28;20130;-84
2021/10/17 00:10:20;;;;;;;9.70;2.28;;;;;;;;;;4974627;28;20073;-84
2021/10/17 00:12:47;;;;;;;19.25;2.35;;;;;;;;;;4973149;28;20142;-84
2021/10/17 00:15:16;;;;;;;11.05;3.20;;;;;;;;;;4979511;28;20050;-84
2021/10/17 00:17:44;;;;;;;11.77;2.65;;;;;;;;;;4976705;28;20085;-84
2021/10/17 00:20:12;;;;;;;11.95;1.95;;;;;;;;;;4976753;28;20100;-84
2021/10/17 00:22:39;;;;;;;4.75;1.88;;;;;;;;;;4990405;28;20090;-84
2021/10/17 00:25:07;;;;;;;8.73;3.45;;;;;;;;;;4986363;28;20146;-84
2021/10/17 00:27:34;;;;;;;10.18;2.47;;;;;;;;;;4987784;28;20142;-84
2021/10/17 00:30:04;;;;;;;15.38;2.55;;;;;;;;;;4972198;28;20637;-84
2021/10/17 00:32:31;;;;;;;7.03;1.65;;;;;;;;;;4984541;28;20082;-84
2021/10/17 00:35:01;;;;;;;6.85;1.80;;;;;;;;;;4986040;28;20085;-84
2021/10/17 00:37:29;;;;;;;11.07;2.13;;;;;;;;;;4986380;28;20134;-84
2021/10/17 00:39:56;;;;;;;12.88;2.05;;;;;;;;;;4988484;28;20086;-84
2021/10/17 00:42:24;;;;;;;9.18;2.20;;;;;;;;;;4985733;28;20451;-84
2021/10/17 00:44:58;;;;;;;4.07;1.92;;;;;;;;;;4984897;28;20130;-83
2021/10/17 00:47:25;;;;;;;8.52;2.50;;;;;;;;;;4969527;28;20125;-84
2021/10/17 00:49:52;;;;;;;12.98;2.08;;;;;;;;;;4984628;28;20129;-83
2021/10/17 00:52:20;;;;;;;7.28;1.80;;;;;;;;;;4969179;28;20042;-84
2021/10/17 00:54:47;;;;;;;13.18;3.63;;;;;;;;;;4970849;28;20129;-84
2021/10/17 00:57:15;;;;;;;7.07;2.13;;;;;;;;;;4969751;28;20084;-84
2021/10/17 00:59:43;;;;;;;12.25;2.45;;;;;;;;;;4973178;28;20049;-84
2021/10/17 01:02:11;;;;;;;8.45;1.90;;;;;;;;;;4983999;28;20500;-84
2021/10/17 01:04:39;;;;;;;8.70;2.20;;;;;;;;;;4975601;28;20046;-83
2021/10/17 01:07:06;;;;;;;8.40;2.10;;;;;;;;;;4975444;28;20050;-84
2021/10/17 01:09:38;;;;;;;14.68;2.40;;;;;;;;;;4986543;28;20050;-84
2021/10/17 01:12:06;;;;;;;8.65;2.17;;;;;;;;;;4976947;28;20101;-84
2021/10/17 01:14:33;;;;;;;7.22;2.10;;;;;;;;;;4975771;28;20118;-84
2021/10/17 01:17:01;;;;;;;11.10;2.10;;;;;;;;;;4987712;28;20131;-84
2021/10/17 01:19:28;;;;;;;5.03;2.03;;;;;;;;;;4989786;28;20136;-84
2021/10/17 01:21:57;;;;;;;7.45;1.92;;;;;;;;;;4990990;28;20451;-84
2021/10/17 01:24:24;;;;;;;7.45;2.28;;;;;;;;;;4988880;28;20070;-84
2021/10/17 01:26:51;;;;;;;8.35;1.90;;;;;;;;;;4977131;28;20743;-84
2021/10/17 01:29:21;;;;;;;8.30;2.25;;;;;;;;;;4991595;28;20138;-84
2021/10/17 01:31:55;;;;;;;6.05;1.83;;;;;;;;;;4980513;28;20778;-84
2021/10/17 01:34:26;;;;;;;6.60;2.05;;;;;;;;;;4975221;28;20076;-84
2021/10/17 01:36:54;;;;;;;18.17;2.00;;;;;;;;;;4983877;28;20137;-84
2021/10/17 01:39:22;;;;;;;10.73;2.40;;;;;;;;;;4989388;28;20843;-84
2021/10/17 01:42:20;;;;;;;6.03;1.90;;;;;;;;;;4974628;28;20074;-84
2021/10/17 01:44:47;;;;;;;8.00;2.08;;;;;;;;;;4974128;28;20085;-84
2021/10/17 01:47:14;;;;;;;9.02;2.13;;;;;;;;;;4978735;28;20691;-84
2021/10/17 01:49:41;;;;;;;14.40;2.65;;;;;;;;;;4982723;28;20047;-84
2021/10/17 01:52:09;;;;;;;4.53;2.00;;;;;;;;;;4988239;28;20659;-84
2021/10/17 01:54:36;;;;;;;10.00;2.30;;;;;;;;;;4979137;28;20129;-84
2021/10/17 01:57:04;;;;;;;9.40;2.33;;;;;;;;;;4974823;28;20125;-84
2021/10/17 01:59:31;;;;;;;5.97;2.22;;;;;;;;;;4991885;28;20153;-84
2021/10/17 02:01:58;;;;;;;10.02;2.22;;;;;;;;;;4989226;28;20531;-84
2021/10/17 02:04:25;;;;;;;8.68;2.63;;;;;;;;;;4975297;28;20146;-84
2021/10/17 02:06:52;;;;;;;7.82;2.05;;;;;;;;;;4989525;28;20085;-84
2021/10/17 02:09:20;;;;;;;11.48;2.30;;;;;;;;;;4976257;28;20051;-84
2021/10/17 02:11:47;;;;;;;7.97;1.80;;;;;;;;;;5000554;28;20125;-84
2021/10/17 02:14:17;;;;;;;6.97;2.42;;;;;;;;;;4991043;28;20074;-84
2021/10/17 02:16:44;;;;;;;7.25;1.88;;;;;;;;;;4980900;28;20047;-84
2021/10/17 02:19:11;;;;;;;7.60;2.38;;;;;;;;;;4981507;28;20752;-84
2021/10/17 02:21:38;;;;;;;10.73;2.00;;;;;;;;;;4989021;28;20054;-84
2021/10/17 02:24:10;;;;;;;16.83;2.58;;;;;;;;;;4989771;28;20089;-84
2021/10/17 02:26:38;;;;;;;18.17;2.35;;;;;;;;;;4983583;28;20130;-84
2021/10/17 02:29:06;;;;;;;11.05;2.47;;;;;;;;;;4967065;28;20141;-84
2021/10/17 02:31:33;;;;;;;15.05;2.25;;;;;;;;;;4985812;28;20051;-84
2021/10/17 02:34:00;;;;;;;18.20;4.97;;;;;;;;;;4989338;28;20086;-83
2021/10/17 02:36:27;;;;;;;8.43;2.28;;;;;;;;;;4982831;28;20158;-83
2021/10/17 02:38:54;;;;;;;6.65;1.70;;;;;;;;;;4961118;28;20079;-84
2021/10/17 02:41:21;;;;;;;11.63;1.92;;;;;;;;;;4985055;28;20074;-84
2021/10/17 02:43:51;;;;;;;8.50;1.98;;;;;;;;;;4993978;28;20058;-84
2021/10/17 02:46:18;;;;;;;5.40;1.90;;;;;;;;;;4968309;28;20232;-84
2021/10/17 02:48:45;;;;;;;8.82;1.70;;;;;;;;;;4988924;28;20134;-84
2021/10/17 02:51:12;;;;;;;8.63;3.05;;;;;;;;;;4987727;28;20082;-84
2021/10/17 02:53:44;;;;;;;12.07;3.00;;;;;;;;;;4970160;28;20132;-84
2021/10/17 02:56:11;;;;;;;12.73;2.28;;;;;;;;;;4981797;28;20133;-84
2021/10/17 02:58:38;;;;;;;7.43;2.40;;;;;;;;;;4978088;28;20166;-84
2021/10/17 03:01:05;;;;;;;9.05;1.83;;;;;;;;;;4991407;28;20137;-84
2021/10/17 03:03:32;;;;;;;6.85;1.90;;;;;;;;;;4967450;28;20133;-85
2021/10/17 03:05:59;;;;;;;5.90;2.42;;;;;;;;;;4973617;28;20142;-83
2021/10/17 03:08:26;;;;;;;10.48;2.58;;;;;;;;;;4956269;28;20129;-84
2021/10/17 03:10:53;;;;;;;10.07;2.38;;;;;;;;;;4992841;28;20728;-84
2021/10/17 03:13:21;;;;;;;8.45;2.55;;;;;;;;;;4972541;28;20086;-84
2021/10/17 03:15:49;;;;;;;9.32;2.17;;;;;;;;;;4984976;28;20094;-84
2021/10/17 03:18:16;;;;;;;9.50;2.15;;;;;;;;;;4988686;28;20775;-84
2021/10/17 03:20:44;;;;;;;14.38;1.90;;;;;;;;;;4986334;28;20050;-84
2021/10/17 03:23:11;;;;;;;9.40;2.00;;;;;;;;;;4973389;28;20130;-85
2021/10/17 03:25:43;;;;;;;5.75;1.95;;;;;;;;;;4985106;28;20094;-84
2021/10/17 03:28:10;;;;;;;11.25;2.60;;;;;;;;;;4963474;28;20061;-84
2021/10/17 03:30:37;;;;;;;11.38;2.22;;;;;;;;;;4994812;28;20492;-84
2021/10/17 03:33:05;;;;;;;16.13;2.55;;;;;;;;;;4954024;28;20539;-83
2021/10/17 03:35:32;;;;;;;7.15;2.30;;;;;;;;;;4965665;28;20142;-84
2021/10/17 03:37:59;;;;;;;12.73;2.63;;;;;;;;;;4977114;28;20090;-84
2021/10/17 03:40:26;;;;;;;9.80;2.35;;;;;;;;;;4975984;28;20054;-83
2021/10/17 03:42:53;;;;;;;12.90;2.65;;;;;;;;;;4971414;28;20062;-83
2021/10/17 03:45:23;;;;;;;9.40;2.50;;;;;;;;;;4968363;28;20147;-83
2021/10/17 03:47:50;;;;;;;10.48;2.72;;;;;;;;;;4987319;28;20133;-84
2021/10/17 03:50:17;;;;;;;8.20;1.90;;;;;;;;;;4972395;28;20129;-83
2021/10/17 03:52:52;;;;;;;14.77;3.65;;;;;;;;;;4972037;28;20078;-84
2021/10/17 03:55:19;;;;;;;13.38;2.75;;;;;;;;;;4986843;28;20094;-84
2021/10/17 03:57:46;;;;;;;9.13;3.03;;;;;;;;;;4980440;28;20464;-84
2021/10/17 04:00:13;;;;;;;7.53;2.20;;;;;;;;;;4982694;28;20138;-84
2021/10/17 04:02:40;;;;;;;9.70;2.38;;;;;;;;;;4959618;28;20085;-83
2021/10/17 04:05:08;;;;;;;5.93;2.20;;;;;;;;;;4985572;28;20540;-83
2021/10/17 04:07:37;;;;;;;8.88;4.28;;;;;;;;;;4975615;28;20125;-83
2021/10/17 04:10:04;;;;;;;12.85;3.22;;;;;;;;;;4984403;28;20035;-83
2021/10/17 04:12:32;;;;;;;9.70;2.10;;;;;;;;;;4979634;28;20089;-84
2021/10/17 04:14:59;;;;;;;5.65;2.47;;;;;;;;;;4971490;28;20054;-83
2021/10/17 04:20:27;;;;;;;12.48;2.53;;;;;;;;;;4987358;28;20146;-80
2021/10/17 04:22:54;;;;;;;9.38;2.78;;;;;;;;;;4992229;28;20074;-80
2021/10/17 04:25:21;;;;;;;6.13;2.45;;;;;;;;;;4992727;28;20086;-80
2021/10/17 04:27:49;;;;;;;6.15;2.40;;;;;;;;;;4992852;28;20051;-80
2021/10/17 04:30:16;;;;;;;19.00;5.97;;;;;;;;;;5003708;28;20064;-80
2021/10/17 04:32:43;;;;;;;7.03;2.80;;;;;;;;;;4991328;28;20046;-80
2021/10/17 04:35:10;;;;;;;10.43;2.60;;;;;;;;;;4997368;28;20125;-80
2021/10/17 04:37:38;;;;;;;11.93;2.72;;;;;;;;;;4996933;28;20105;-80
2021/10/17 04:40:06;;;;;;;13.85;4.35;;;;;;;;;;5007867;28;20137;-80
2021/10/17 04:42:35;;;;;;;16.40;3.50;;;;;;;;;;5017910;28;20088;-81
2021/10/17 04:45:17;;;;;;;14.35;2.88;;;;;;;;;;4995652;28;20038;-80
2021/10/17 04:47:44;;;;;;;18.42;2.85;;;;;;;;;;4994559;28;20081;-80
2021/10/17 04:50:12;;;;;;;13.13;2.85;;;;;;;;;;4998736;28;20132;-80
2021/10/17 04:52:39;;;;;;;7.78;2.63;;;;;;;;;;5022634;28;20053;-80
2021/10/17 04:55:08;;;;;;;8.27;2.90;;;;;;;;;;5011831;28;20754;-80
2021/10/17 04:57:38;;;;;;;9.15;2.92;;;;;;;;;;5010398;28;20096;-80
2021/10/17 05:00:06;;;;;;;12.23;2.50;;;;;;;;;;5018401;28;20464;-80
2021/10/17 05:02:34;;;;;;;18.02;2.90;;;;;;;;;;5005838;28;20077;-81
2021/10/17 05:05:01;;;;;;;9.63;3.17;;;;;;;;;;5008601;28;20733;-81
2021/10/17 05:07:28;;;;;;;13.43;3.50;;;;;;;;;;4988917;28;20133;-80
2021/10/17 05:09:55;;;;;;;13.38;3.42;;;;;;;;;;4991100;28;20101;-80
2021/10/17 05:12:22;;;;;;;12.48;3.67;;;;;;;;;;5011713;28;20078;-81
2021/10/17 05:14:49;;;;;;;12.32;3.30;;;;;;;;;;4990268;28;20129;-80
2021/10/17 05:17:17;;;;;;;10.35;3.03;;;;;;;;;;4988068;28;20168;-80
2021/10/17 05:19:44;;;;;;;15.00;3.63;;;;;;;;;;4989837;28;20138;-80
2021/10/17 05:22:11;;;;;;;11.18;3.78;;;;;;;;;;5003331;28;20050;-81
2021/10/17 05:24:38;;;;;;;7.78;3.22;;;;;;;;;;4975735;28;20090;-81
2021/10/17 05:27:05;;;;;;;14.70;4.78;;;;;;;;;;4993927;28;20057;-81
2021/10/17 05:29:32;;;;;;;9.48;3.53;;;;;;;;;;5005460;28;20153;-81
2021/10/17 05:31:59;;;;;;;21.35;4.15;;;;;;;;;;5015573;28;20069;-81
2021/10/17 05:34:27;;;;;;;15.82;4.03;;;;;;;;;;5010003;28;20918;-81
2021/10/17 05:36:54;;;;;;;13.63;4.07;;;;;;;;;;5001462;28;20227;-80
2021/10/17 05:39:21;;;;;;;14.52;3.50;;;;;;;;;;4993289;28;20550;-80
2021/10/17 05:41:53;;;;;;;18.60;3.65;;;;;;;;;;5016788;28;20811;-80
2021/10/17 05:44:20;;;;;;;25.73;4.57;;;;;;;;;;4993587;28;20073;-81
2021/10/17 05:46:47;;;;;;;16.35;3.97;;;;;;;;;;4992742;28;20125;-81
2021/10/17 05:49:14;;;;;;;19.48;3.90;;;;;;;;;;4992046;28;20125;-80
2021/10/17 05:51:42;;;;;;;13.27;3.83;;;;;;;;;;4993382;28;20137;-81
2021/10/17 05:54:09;;;;;;;14.40;4.30;;;;;;;;;;4992180;28;20511;-81
2021/10/17 05:56:36;;;;;;;9.65;3.80;;;;;;;;;;4991913;28;20057;-80
2021/10/17 05:59:08;;;;;;;10.98;3.95;;;;;;;;;;5008893;28;20080;-80
2021/10/17 06:01:36;;;;;;;22.55;4.32;;;;;;;;;;5000865;28;20074;-80
2021/10/17 06:04:04;;;;;;;16.42;4.15;;;;;;;;;;4991926;28;20050;-80
2021/10/17 06:06:31;;;;;;;17.42;4.80;;;;;;;;;;4992778;28;20672;-80
2021/10/17 06:08:59;;;;;;;13.75;4.28;;;;;;;;;;4992711;28;20093;-80
2021/10/17 06:11:26;;;;;;;14.82;4.43;;;;;;;;;;5016670;28;20078;-80
2021/10/17 06:13:53;;;;;;;20.30;3.78;;;;;;;;;;5010334;28;20206;-80
2021/10/17 06:16:21;;;;;;;18.30;4.30;;;;;;;;;;4979924;28;20141;-80
2021/10/17 06:18:48;;;;;;;18.00;4.78;;;;;;;;;;4988653;28;20049;-80
2021/10/17 06:21:15;;;;;;;21.70;4.57;;;;;;;;;;4990561;28;20551;-80
2021/10/17 06:23:42;;;;;;;22.23;4.80;;;;;;;;;;5004486;28;20089;-80
2021/10/17 06:26:09;;;;;;;14.73;4.50;;;;;;;;;;4992618;28;20084;-81
2021/10/17 06:28:37;;;;;;;14.05;4.13;;;;;;;;;;4997073;28;20456;-81
2021/10/17 06:31:04;;;;;;;32.13;7.57;;;;;;;;;;5017582;28;20129;-81
2021/10/17 06:33:31;;;;;;;16.63;4.93;;;;;;;;;;4992825;28;20137;-81
2021/10/17 06:35:58;;;;;;;15.75;4.60;;;;;;;;;;4976455;28;20046;-80
2021/10/17 06:38:25;;;;;;;13.38;4.60;;;;;;;;;;4983017;28;20766;-80
2021/10/17 06:40:52;;;;;;;16.73;4.40;;;;;;;;;;5011121;28;20460;-80
2021/10/17 06:43:20;;;;;;;13.68;4.57;;;;;;;;;;5017392;28;20042;-80
2021/10/17 06:45:47;;;;;;;20.10;5.22;;;;;;;;;;4986583;28;20134;-80
2021/10/17 06:48:14;;;;;;;13.40;5.45;;;;;;;;;;4996539;28;20057;-80
2021/10/17 06:50:42;;;;;;;14.60;4.45;;;;;;;;;;4986657;28;20084;-80
2021/10/17 06:53:10;;;;;;;15.15;4.88;;;;;;;;;;4988437;28;20133;-80
2021/10/17 06:55:37;;;;;;;22.63;5.25;;;;;;;;;;5000403;28;20129;-80
2021/10/17 06:58:06;;;;;;;12.00;5.15;;;;;;;;;;5010893;28;20056;-80
2021/10/17 07:00:33;;;;;;;16.67;4.25;;;;;;;;;;5015122;28;20092;-80
2021/10/17 07:03:01;;;;;;;22.52;6.43;;;;;;;;;;4995554;28;20057;-80
2021/10/17 07:05:28;;;;;;;22.77;6.53;;;;;;;;;;4997756;28;20186;-80
2021/10/17 07:07:55;;;;;;;27.08;5.35;;;;;;;;;;5011438;28;20497;-81
2021/10/17 07:10:22;;;;;;;19.27;5.05;;;;;;;;;;5014430;28;20157;-81
2021/10/17 07:12:49;;;;;;;18.65;6.18;;;;;;;;;;4994818;28;20575;-81
2021/10/17 07:15:16;;;;;;;18.00;4.80;;;;;;;;;;4992836;28;20047;-81
2021/10/17 07:17:43;;;;;;;16.45;4.95;;;;;;;;;;4992974;28;20077;-81
2021/10/17 07:20:30;;;;;;;15.23;5.68;;;;;;;;;;4998635;28;20057;-81
2021/10/17 07:22:57;;;;;;;14.45;5.18;;;;;;;;;;5001451;28;20073;-81
2021/10/17 07:25:24;;;;;;;16.27;5.07;;;;;;;;;;4988331;28;20109;-81
2021/10/17 07:27:54;;;;;;;13.70;4.82;;;;;;;;;;4998403;28;20086;-81
2021/10/17 07:30:26;;;;;;;19.52;5.15;;;;;;;;;;5014806;28;20104;-81
2021/10/17 07:32:53;;;;;;;15.38;4.97;;;;;;;;;;4993878;28;20517;-82
2021/10/17 07:35:21;;;;;;;13.63;4.85;;;;;;;;;;4993490;28;20816;-82
2021/10/17 07:37:48;;;;;;;16.20;4.95;;;;;;;;;;5001747;28;20047;-81
2021/10/17 07:40:15;;;;;;;18.85;5.95;;;;;;;;;;4990425;28;20461;-82
2021/10/17 07:42:42;;;;;;;14.70;4.88;;;;;;;;;;5016658;28;20132;-80
2021/10/17 07:45:09;;;;;;;17.40;5.00;;;;;;;;;;5007173;28;20070;-84
2021/10/17 07:47:39;;;;;;;14.30;5.07;;;;;;;;;;4997369;28;20534;-79
2021/10/17 07:50:08;;;;;;;14.80;5.20;;;;;;;;;;4990884;28;20173;-86
2021/10/17 07:52:36;;;;;;;21.55;5.00;;;;;;;;;;4995330;28;20058;-82
2021/10/17 07:55:04;;;;;;;24.35;5.55;;;;;;;;;;4992160;28;20074;-82
2021/10/17 07:57:43;;;;;;;17.10;5.25;;;;;;;;;;5006401;28;20129;-83
2021/10/17 08:00:11;;;;;;;23.17;6.43;;;;;;;;;;5012113;28;20054;-86
2021/10/17 08:02:40;;;;;;;15.38;6.05;;;;;;;;;;4994168;28;20137;-86
2021/10/17 08:05:08;;;;;;;19.90;6.85;;;;;;;;;;4992429;28;20470;-83
2021/10/17 08:07:37;;;;;;;21.38;6.60;;;;;;;;;;4993318;28;20054;-84
2021/10/17 08:10:10;;;;;;;19.08;5.75;;;;;;;;;;5008802;28;20115;-85
2021/10/17 08:12:38;;;;;;;16.92;6.20;;;;;;;;;;4994571;28;20058;-90
2021/10/17 08:15:06;;;;;;;20.85;6.47;;;;;;;;;;4991236;28;20093;-83
2021/10/17 08:17:38;;;;;;;14.38;5.45;;;;;;;;;;5007212;28;20050;-83
2021/10/17 08:20:06;;;;;;;18.05;5.95;;;;;;;;;;4999536;28;20062;-83
2021/10/17 08:22:35;;;;;;;15.90;5.45;;;;;;;;;;5009418;28;20089;-83
2021/10/17 08:25:05;;;;;;;21.80;5.55;;;;;;;;;;5007659;28;20050;-87
2021/10/17 08:27:32;;;;;;;18.13;5.72;;;;;;;;;;5007641;28;20102;-82
2021/10/17 08:30:01;;;;;;;15.90;5.88;;;;;;;;;;5007393;28;20176;-82
2021/10/17 08:32:33;;;;;;;20.73;5.35;;;;;;;;;;4995140;28;20105;-85
2021/10/17 08:35:00;;;;;;;11.75;5.10;;;;;;;;;;4991716;28;20043;-88
2021/10/17 08:37:33;;;;;;;22.08;5.50;;;;;;;;;;5006732;28;20503;-85
2021/10/17 08:40:03;;;;;;;19.85;5.50;;;;;;;;;;5006059;28;20463;-80
2021/10/17 08:42:30;;;;;;;15.05;4.93;;;;;;;;;;4992936;28;20046;-79
2021/10/17 08:45:07;;;;;;;15.32;5.20;;;;;;;;;;4998246;28;20150;-80
2021/10/17 08:47:34;;;;;;;20.02;5.85;;;;;;;;;;4992782;28;20161;-79
2021/10/17 08:50:03;;;;;;;14.63;4.65;;;;;;;;;;4993746;28;20137;-78
2021/10/17 08:52:30;;;;;;;14.50;4.85;;;;;;;;;;4990837;28;20117;-79
2021/10/17 08:54:58;;;;;;;15.80;4.68;;;;;;;;;;5004239;28;20474;-80
2021/10/17 08:57:25;;;;;;;13.27;5.18;;;;;;;;;;4989323;28;20086;-79
2021/10/17 08:59:52;;;;;;;15.73;5.43;;;;;;;;;;5005813;28;20432;-80
2021/10/17 09:02:21;;;;;;;17.02;4.65;;;;;;;;;;4996097;28;20093;-82
2021/10/17 09:05:02;;;;;;;21.05;6.35;;;;;;;;;;5001899;28;20046;-81
2021/10/17 09:07:29;;;;;;;12.98;4.88;;;;;;;;;;4997578;28;20066;-80
2021/10/17 09:10:14;;;;;;;11.73;4.40;;;;;;;;;;5000785;28;20643;-81
2021/10/17 09:12:42;;;;;;;14.38;4.68;;;;;;;;;;5006646;28;20081;-81
2021/10/17 09:15:29;;;;;;;19.30;5.63;;;;;;;;;;4988795;28;20761;-80
2021/10/17 09:18:13;;;;;;;19.17;5.60;;;;;;;;;;4986293;28;20042;-83
2021/10/17 09:20:47;;;;;;;12.55;5.25;;;;;;;;;;4994409;28;20384;-81
2021/10/17 09:23:17;;;;;;;12.32;4.53;;;;;;;;;;4994321;28;20494;-81
2021/10/17 09:25:45;;;;;;;16.63;4.53;;;;;;;;;;4986161;28;20059;-80
2021/10/17 09:28:15;;;;;;;13.52;4.93;;;;;;;;;;4988686;28;20125;-84
2021/10/17 09:30:43;;;;;;;12.55;4.18;;;;;;;;;;5015516;28;20438;-84
2021/10/17 09:33:24;;;;;;;11.43;4.65;;;;;;;;;;5001660;28;20670;-84
2021/10/17 09:35:51;;;;;;;12.60;4.78;;;;;;;;;;4994234;28;20109;-81
2021/10/17 09:38:21;;;;;;;19.60;4.30;;;;;;;;;;5003256;28;20130;-80
2021/10/17 09:40:49;;;;;;;22.42;4.80;;;;;;;;;;4998977;28;20053;-81
2021/10/17 09:43:22;;;;;;;15.32;4.63;;;;;;;;;;5015104;28;20141;-78
2021/10/17 09:45:50;;;;;;;14.50;4.30;;;;;;;;;;4993025;28;20074;-83
2021/10/17 09:48:30;;;;;;;13.05;4.78;;;;;;;;;;4994126;28;20108;-80
2021/10/17 09:51:04;;;;;;;21.30;4.80;;;;;;;;;;4996096;28;20046;-80
2021/10/17 09:53:45;;;;;;;15.55;4.88;;;;;;;;;;4988573;28;20062;-79
2021/10/17 09:56:25;;;;;;;11.50;4.32;;;;;;;;;;4991837;28;20562;-82
2021/10/17 09:58:54;;;;;;;19.13;4.38;;;;;;;;;;4984182;28;20713;-88
2021/10/17 10:01:25;;;;;;;18.55;4.85;;;;;;;;;;5021044;28;20486;-84
2021/10/17 10:03:53;;;;;;;15.85;4.80;;;;;;;;;;5020899;28;20030;-85
2021/10/17 10:06:21;;;;;;;8.93;4.47;;;;;;;;;;5007616;28;20523;-87
2021/10/17 10:08:50;;;;;;;15.95;4.88;;;;;;;;;;5005837;28;20118;-85
2021/10/17 10:11:30;;;;;;;13.82;5.13;;;;;;;;;;5006350;28;20616;-86
2021/10/17 10:14:05;;;;;;;18.00;4.95;;;;;;;;;;5004463;28;20070;-87
2021/10/17 10:16:37;;;;;;;19.67;5.05;;;;;;;;;;5010107;28;20113;-87
2021/10/17 10:19:06;;;;;;;23.58;5.57;;;;;;;;;;5010993;28;20070;-84
2021/10/17 10:21:34;;;;;;;15.60;4.53;;;;;;;;;;4993795;28;20129;-85
2021/10/17 10:24:02;;;;;;;14.63;5.00;;;;;;;;;;4996969;28;20042;-86
2021/10/17 10:26:30;;;;;;;19.70;4.93;;;;;;;;;;5008673;28;20084;-84
2021/10/17 10:29:12;;;;;;;19.45;5.35;;;;;;;;;;5008040;28;20088;-84
2021/10/17 10:31:52;;;;;;;16.50;4.55;;;;;;;;;;5004435;22;20046;-87
2021/10/17 10:34:23;;;;;;;14.48;4.45;;;;;;;;;;4992651;28;20054;-85
2021/10/17 10:36:55;;;;;;;19.08;4.53;;;;;;;;;;4994011;28;20050;-87
2021/10/17 10:39:22;;;;;;;13.93;5.00;;;;;;;;;;4992348;28;20222;-86
2021/10/17 10:42:02;;;;;;;12.07;4.63;;;;;;;;;;4996190;28;20792;-85
2021/10/17 10:44:32;;;;;;;11.13;4.40;;;;;;;;;;5013641;28;20038;-80
2021/10/17 10:47:19;;;;;;;16.25;5.05;;;;;;;;;;5000254;28;20487;-82
2021/10/17 10:49:52;;;;;;;12.20;4.55;;;;;;;;;;4990905;28;20496;-82
2021/10/17 10:52:25;;;;;;;11.80;4.10;;;;;;;;;;4993202;28;20121;-80
2021/10/17 10:54:54;;;;;;;13.38;4.13;;;;;;;;;;4991800;28;20133;-82
2021/10/17 10:57:22;;;;;;;12.55;4.57;;;;;;;;;;4993235;28;20123;-81
2021/10/17 11:00:01;;;;;;;15.60;5.32;;;;;;;;;;5003311;28;20525;-81
2021/10/17 11:02:29;;;;;;;8.50;4.32;;;;;;;;;;5011269;28;20060;-81
2021/10/17 11:04:58;;;;;;;19.70;4.60;;;;;;;;;;5000947;28;20106;-82
2021/10/17 11:07:34;;;;;;;11.75;3.92;;;;;;;;;;4990925;28;20137;-83
2021/10/17 11:10:20;;;;;;;15.30;5.00;;;;;;;;;;5000860;28;20069;-81
2021/10/17 11:12:48;;;;;;;12.68;4.00;;;;;;;;;;4989826;28;20148;-81
2021/10/17 11:15:19;;;;;;;9.60;3.63;;;;;;;;;;5006114;28;20161;-80
2021/10/17 11:17:59;;;;;;;9.70;3.63;;;;;;;;;;4988955;28;20060;-82
2021/10/17 11:20:28;;;;;;;14.15;4.07;;;;;;;;;;4992929;28;20610;-80
2021/10/17 11:22:59;;;;;;;12.90;3.47;;;;;;;;;;4995432;28;20137;-81
2021/10/17 11:25:26;;;;;;;13.10;4.05;;;;;;;;;;4990009;28;20046;-80
2021/10/17 11:27:54;;;;;;;14.52;3.40;;;;;;;;;;4999193;28;20133;-84
2021/10/17 11:30:22;;;;;;;16.05;4.93;;;;;;;;;;4993442;28;20439;-84
2021/10/17 11:32:51;;;;;;;16.77;4.10;;;;;;;;;;4996898;28;20463;-84
2021/10/17 11:35:25;;;;;;;13.45;3.83;;;;;;;;;;4990807;28;20070;-82
2021/10/17 11:37:52;;;;;;;12.25;3.50;;;;;;;;;;5024359;28;20066;-83
2021/10/17 11:40:23;;;;;;;11.88;4.90;;;;;;;;;;5007222;28;20141;-83
2021/10/17 11:42:51;;;;;;;14.40;3.85;;;;;;;;;;5020838;28;20133;-83
2021/10/17 11:45:23;;;;;;;9.07;4.45;;;;;;;;;;4990063;28;20108;-87
2021/10/17 11:47:52;;;;;;;11.57;3.45;;;;;;;;;;4989498;28;20125;-84
2021/10/17 11:50:25;;;;;;;10.70;3.53;;;;;;;;;;4986901;28;20205;-85
2021/10/17 11:53:06;;;;;;;9.85;3.28;;;;;;;;;;4998729;28;20046;-85
2021/10/17 11:55:39;;;;;;;7.20;2.97;;;;;;;;;;4997470;28;20042;-85
2021/10/17 11:58:13;;;;;;;7.35;3.05;;;;;;;;;;4999406;28;20613;-85
2021/10/17 12:00:42;;;;;;;13.10;3.00;;;;;;;;;;4998959;28;20074;-85
2021/10/17 12:03:10;;;;;;;9.70;3.22;;;;;;;;;;4991140;28;20825;-82
2021/10/17 12:05:42;;;;;;;7.75;2.80;;;;;;;;;;4990956;28;20058;-83
2021/10/17 12:08:20;;;;;;;7.00;2.38;;;;;;;;;;5000736;28;20535;-82
2021/10/17 12:10:57;;;;;;;8.18;2.50;;;;;;;;;;5010757;28;20041;-82
2021/10/17 12:13:25;;;;;;;4.65;2.30;;;;;;;;;;5000390;28;20105;-83
2021/10/17 12:16:12;;;;;;;7.43;2.22;;;;;;;;;;5006677;28;20786;-84
2021/10/17 12:18:47;;;;;;;15.20;3.08;;;;;;;;;;4990089;28;20141;-84
2021/10/17 12:21:16;;;;;;;10.02;3.15;;;;;;;;;;4986893;28;20121;-84
2021/10/17 12:23:45;;;;;;;12.10;2.97;;;;;;;;;;5004452;28;20096;-84
2021/10/17 12:26:20;;;;;;;8.73;3.45;;;;;;;;;;5009354;28;20133;-84
2021/10/17 12:31:29;;;;;;;12.27;3.97;;;;;;;;;;4995868;28;19972;-85
2021/10/17 12:34:00;;;;;;;9.73;3.88;;;;;;;;;;4990699;28;20050;-85
2021/10/17 12:36:27;;;;;;;9.80;4.45;;;;;;;;;;5024210;28;20490;-87
2021/10/17 12:39:04;;;;;;;11.65;5.10;;;;;;;;;;5007569;28;20085;-88
2021/10/17 12:41:36;;;;;;;10.43;4.80;;;;;;;;;;5005749;28;20077;-88
2021/10/17 12:44:04;;;;;;;16.75;5.90;;;;;;;;;;5008679;28;20133;-82
2021/10/17 12:46:32;;;;;;;11.75;6.43;;;;;;;;;;4991097;28;20056;-82
2021/10/17 12:49:18;;;;;;;14.70;6.05;;;;;;;;;;5014440;28;20047;-86
2021/10/17 12:51:54;;;;;;;16.17;7.25;;;;;;;;;;4987722;28;20050;-87
2021/10/17 12:54:21;;;;;;;11.55;7.22;;;;;;;;;;5005435;28;20777;-89
2021/10/17 12:56:51;;;;;;;19.42;8.48;;;;;;;;;;4991445;28;20082;-89
2021/10/17 12:59:28;;;;;;;15.85;8.60;;;;;;;;;;4990777;28;20070;-89
2021/10/17 13:02:06;;;;;;;21.92;8.68;;;;;;;;;;4992378;28;20058;-89
2021/10/17 13:04:59;;;;;;;23.20;9.23;;;;;;;;;;4989673;28;20121;-83
2021/10/17 13:07:31;;;;;;;25.75;9.25;;;;;;;;;;4993529;28;20053;-86
2021/10/17 13:10:14;;;;;;;26.45;10.05;;;;;;;;;;5009453;28;20046;-80
2021/10/17 13:12:46;;;;;;;22.45;9.18;;;;;;;;;;4992813;28;20050;-81
2021/10/17 13:15:27;;;;;;;21.75;9.77;;;;;;;;;;4985280;28;20050;-80
2021/10/17 13:17:55;;;;;;;20.60;9.77;;;;;;;;;;5003494;28;20042;-83
2021/10/17 13:20:33;;;;;;;24.25;10.15;;;;;;;;;;4994409;28;20054;-85
2021/10/17 13:23:03;;;;;;;27.38;10.35;;;;;;;;;;4994144;28;20101;-87
2021/10/17 13:25:32;;;;;;;28.27;10.52;;;;;;;;;;4991645;28;20046;-85
2021/10/17 13:28:03;;;;;;;19.50;10.13;;;;;;;;;;5004920;28;20085;-87
2021/10/17 13:30:31;;;;;;;30.98;13.68;;;;;;;;;;5007252;28;20050;-83
2021/10/17 13:33:05;;;;;;;24.77;12.15;;;;;;;;;;5008961;28;20074;-85
2021/10/17 13:35:33;;;;;;;26.88;11.57;;;;;;;;;;5010134;28;20050;-85
2021/10/17 13:38:01;;;;;;;33.97;14.27;;;;;;;;;;5002489;28;20113;-86
2021/10/17 13:40:28;;;;;;;27.38;12.40;;;;;;;;;;5027004;28;20395;-85
2021/10/17 13:42:55;;;;;;;28.55;12.95;;;;;;;;;;4999973;28;20640;-85
2021/10/17 13:45:24;;;;;;;28.35;12.50;;;;;;;;;;4993148;28;20940;-84
2021/10/17 13:47:52;;;;;;;33.03;13.82;;;;;;;;;;4993571;28;20134;-85
2021/10/17 13:50:19;;;;;;;29.70;13.70;;;;;;;;;;4993238;28;20125;-84
2021/10/17 13:52:47;;;;;;;40.70;14.60;;;;;;;;;;4998924;28;20082;-85
2021/10/17 13:55:20;;;;;;;28.20;14.30;;;;;;;;;;4987167;28;20078;-85
2021/10/17 13:57:47;;;;;;;27.20;14.30;;;;;;;;;;4994331;28;20042;-85
2021/10/17 14:00:18;;;;;;;32.03;15.50;;;;;;;;;;4998808;28;20137;-86
2021/10/17 14:02:45;;;;;;;29.92;13.27;;;;;;;;;;5003155;28;20458;-85
2021/10/17 14:05:12;;;;;;;33.30;14.65;;;;;;;;;;4998530;28;20042;-85
2021/10/17 14:07:42;;;;;;;33.92;14.93;;;;;;;;;;5007043;28;20402;-83
2021/10/17 14:10:14;;;;;;;31.92;12.75;;;;;;;;;;5005824;28;20133;-83
2021/10/17 14:12:41;;;;;;;39.60;14.85;;;;;;;;;;4994100;28;20082;-82
2021/10/17 14:15:09;;;;;;;30.25;14.70;;;;;;;;;;5012595;28;20089;-82
2021/10/17 14:17:37;;;;;;;34.47;14.50;;;;;;;;;;4992982;28;20432;-82
2021/10/17 14:20:05;;;;;;;31.65;15.10;;;;;;;;;;4998887;28;20587;-82
2021/10/17 14:22:32;;;;;;;27.35;13.57;;;;;;;;;;4993001;28;20189;-82
2021/10/17 14:25:02;;;;;;;30.42;14.90;;;;;;;;;;4994374;28;20050;-83
2021/10/17 14:27:32;;;;;;;31.17;13.48;;;;;;;;;;4994845;28;20089;-82
2021/10/17 14:29:59;;;;;;;32.08;14.85;;;;;;;;;;5024935;28;20097;-82
2021/10/17 14:32:29;;;;;;;32.28;14.75;;;;;;;;;;4995731;28;20066;-83
2021/10/17 14:34:56;;;;;;;31.58;14.57;;;;;;;;;;5020988;28;20137;-83
2021/10/17 14:37:31;;;;;;;30.30;14.35;;;;;;;;;;4996283;28;20047;-84
2021/10/17 14:40:03;;;;;;;28.30;14.02;;;;;;;;;;4999187;28;20531;-82
2021/10/17 14:42:32;;;;;;;36.30;14.82;;;;;;;;;;5002163;28;20129;-83
2021/10/17 14:45:01;;;;;;;33.70;14.20;;;;;;;;;;4996968;28;20096;-83
2021/10/17 14:47:33;;;;;;;29.52;13.85;;;;;;;;;;4999434;28;20078;-83
2021/10/17 14:50:00;;;;;;;30.75;16.58;;;;;;;;;;4993029;28;20085;-85